createdAt,value
2017-08-29T00:00:23.685Z,8.30
2017-08-29T00:02:51.225Z,7.77
2017-08-29T00:05:18.751Z,8.53
2017-08-29T00:07:47.086Z,7.83
2017-08-29T00:10:14.633Z,8.97
2017-08-29T00:12:42.172Z,7.80
2017-08-29T00:15:09.732Z,8.50
2017-08-29T00:17:37.280Z,8.50
2017-08-29T00:20:04.810Z,7.90
2017-08-29T00:22:32.400Z,9.10
2017-08-29T00:24:59.957Z,8.10
2017-08-29T00:27:27.509Z,7.50
2017-08-29T00:29:55.072Z,8.13
2017-08-29T00:32:22.596Z,8.17
2017-08-29T00:34:50.138Z,7.90
2017-08-29T00:37:17.707Z,8.30
2017-08-29T00:39:45.237Z,8.40
2017-08-29T00:42:13.530Z,8.93
2017-08-29T00:44:41.093Z,9.00
2017-08-29T00:47:08.627Z,9.40
2017-08-29T00:49:36.170Z,9.90
2017-08-29T00:52:03.750Z,10.53
2017-08-29T00:54:31.289Z,9.63
2017-08-29T00:56:58.833Z,10.47
2017-08-29T00:59:26.407Z,9.90
2017-08-29T01:01:53.943Z,9.77
2017-08-29T01:04:21.469Z,9.40
2017-08-29T01:06:49.030Z,9.77
2017-08-29T01:09:16.570Z,10.50
2017-08-29T01:11:44.123Z,10.20
2017-08-29T01:14:11.716Z,8.50
2017-08-29T01:16:39.276Z,9.90
2017-08-29T01:19:06.808Z,10.40
2017-08-29T01:21:34.391Z,9.90
2017-08-29T01:24:01.974Z,9.33
2017-08-29T01:26:29.533Z,10.97
2017-08-29T01:28:57.103Z,10.10
2017-08-29T01:31:24.663Z,11.20
2017-08-29T01:33:52.227Z,9.90
2017-08-29T01:36:19.785Z,10.73
2017-08-29T01:38:47.334Z,9.23
2017-08-29T01:41:14.868Z,9.50
2017-08-29T01:43:42.460Z,9.13
2017-08-29T01:46:10.005Z,10.30
2017-08-29T01:48:37.569Z,9.33
2017-08-29T01:51:05.155Z,10.10
2017-08-29T01:53:32.708Z,9.30
2017-08-29T01:56:00.253Z,10.10
2017-08-29T01:58:27.839Z,10.13
2017-08-29T02:00:55.395Z,10.20
2017-08-29T02:03:22.925Z,9.60
2017-08-29T02:05:50.512Z,9.37
2017-08-29T02:08:18.059Z,9.07
2017-08-29T02:10:45.600Z,9.70
2017-08-29T02:13:13.184Z,9.00
2017-08-29T02:15:40.725Z,9.50
2017-08-29T02:18:08.256Z,10.20
2017-08-29T02:20:35.825Z,10.27
2017-08-29T02:23:03.384Z,10.23
2017-08-29T02:25:30.943Z,10.93
2017-08-29T02:27:58.519Z,11.33
2017-08-29T02:30:26.070Z,10.47
2017-08-29T02:32:53.606Z,11.00
2017-08-29T02:35:21.178Z,12.53
2017-08-29T02:37:48.729Z,10.77
2017-08-29T02:40:16.289Z,11.03
2017-08-29T02:42:43.863Z,13.00
2017-08-29T02:45:11.416Z,11.63
2017-08-29T02:47:38.964Z,11.00
2017-08-29T02:50:06.548Z,11.23
2017-08-29T02:52:34.090Z,11.90
2017-08-29T02:55:01.648Z,11.90
2017-08-29T02:57:29.237Z,11.30
2017-08-29T02:59:56.835Z,11.87
2017-08-29T03:02:24.416Z,10.83
2017-08-29T03:04:52.005Z,12.20
2017-08-29T03:07:19.580Z,11.67
2017-08-29T03:09:47.169Z,11.10
2017-08-29T03:12:14.747Z,12.73
2017-08-29T03:14:42.344Z,13.20
2017-08-29T03:17:09.932Z,12.27
2017-08-29T03:19:37.529Z,12.07
2017-08-29T03:22:05.123Z,13.70
2017-08-29T03:24:32.710Z,12.80
2017-08-29T03:29:34.154Z,14.83
2017-08-29T03:32:01.753Z,13.77
2017-08-29T03:34:29.344Z,14.30
2017-08-29T03:36:56.942Z,16.10
2017-08-29T03:39:25.301Z,15.40
2017-08-29T03:41:52.884Z,15.70
2017-08-29T03:44:20.453Z,15.10
2017-08-29T03:46:48.054Z,18.07
2017-08-29T03:49:15.608Z,17.47
2017-08-29T03:51:43.196Z,17.87
2017-08-29T03:54:10.777Z,16.77
2017-08-29T03:56:38.373Z,16.23
2017-08-29T03:59:05.983Z,14.03
2017-08-29T04:01:33.576Z,17.30
2017-08-29T04:04:01.159Z,15.90
2017-08-29T04:06:28.757Z,16.50
2017-08-29T04:08:56.328Z,16.40
2017-08-29T04:11:23.931Z,17.17
2017-08-29T04:13:51.509Z,18.50
2017-08-29T04:16:19.105Z,17.40
2017-08-29T04:18:46.710Z,16.87
2017-08-29T04:21:14.298Z,19.10
2017-08-29T04:23:41.945Z,19.90
2017-08-29T04:26:09.541Z,19.80
2017-08-29T04:28:37.137Z,19.90
2017-08-29T04:31:04.734Z,18.53
2017-08-29T04:33:32.315Z,18.30
2017-08-29T04:35:59.926Z,16.10
2017-08-29T04:38:27.503Z,17.80
2017-08-29T04:40:55.079Z,17.83
2017-08-29T04:43:22.679Z,18.57
2017-08-29T04:45:51.023Z,17.00
2017-08-29T04:48:18.612Z,15.20
2017-08-29T04:50:46.174Z,17.60
2017-08-29T04:53:13.773Z,18.53
2017-08-29T04:55:41.389Z,18.60
2017-08-29T04:58:09.735Z,18.63
2017-08-29T05:00:37.332Z,18.40
2017-08-29T05:03:04.910Z,18.77
2017-08-29T05:05:32.508Z,20.93
2017-08-29T05:08:00.096Z,17.87
2017-08-29T05:10:27.654Z,17.77
2017-08-29T05:12:55.272Z,17.30
2017-08-29T05:15:22.868Z,17.93
2017-08-29T05:17:50.462Z,18.03
2017-08-29T05:20:18.827Z,18.60
2017-08-29T05:22:46.417Z,19.20
2017-08-29T05:25:14.029Z,18.87
2017-08-29T05:27:41.598Z,18.03
2017-08-29T05:30:09.172Z,18.20
2017-08-29T05:32:36.764Z,19.00
2017-08-29T05:35:04.360Z,20.10
2017-08-29T05:37:31.954Z,18.77
2017-08-29T05:39:59.532Z,17.37
2017-08-29T05:42:27.096Z,18.70
2017-08-29T05:44:54.690Z,18.03
2017-08-29T05:47:22.285Z,19.90
2017-08-29T05:49:49.887Z,18.17
2017-08-29T05:52:17.478Z,18.60
2017-08-29T05:54:45.195Z,20.57
2017-08-29T05:57:12.970Z,19.50
2017-08-29T05:59:40.563Z,19.80
2017-08-29T06:02:08.210Z,18.30
2017-08-29T06:04:35.808Z,20.70
2017-08-29T06:07:04.249Z,19.97
2017-08-29T06:09:31.881Z,18.07
2017-08-29T06:11:59.440Z,20.37
2017-08-29T06:14:27.450Z,19.50
2017-08-29T06:16:55.099Z,20.10
2017-08-29T06:19:22.691Z,19.80
2017-08-29T06:21:50.280Z,19.63
2017-08-29T06:24:17.880Z,19.50
2017-08-29T06:26:45.511Z,18.57
2017-08-29T06:29:13.095Z,19.63
2017-08-29T06:31:40.704Z,20.37
2017-08-29T06:34:08.290Z,21.53
2017-08-29T06:36:35.848Z,20.73
2017-08-29T06:39:03.450Z,21.90
2017-08-29T06:41:31.041Z,22.10
2017-08-29T06:43:58.632Z,22.83
2017-08-29T06:46:26.229Z,21.80
2017-08-29T06:48:54.539Z,22.17
2017-08-29T06:51:22.181Z,23.60
2017-08-29T06:53:49.837Z,22.53
2017-08-29T06:56:17.418Z,21.73
2017-08-29T06:58:46.001Z,22.30
2017-08-29T07:01:13.580Z,21.30
2017-08-29T07:03:41.180Z,22.30
2017-08-29T07:06:08.804Z,21.33
2017-08-29T07:08:36.392Z,22.90
2017-08-29T07:11:03.996Z,22.63
2017-08-29T07:13:31.577Z,22.47
2017-08-29T07:15:59.178Z,21.77
2017-08-29T07:18:26.747Z,21.23
2017-08-29T07:20:54.347Z,23.23
2017-08-29T07:23:21.978Z,23.30
2017-08-29T07:25:49.575Z,21.20
2017-08-29T07:28:17.191Z,22.53
2017-08-29T07:30:44.779Z,22.60
2017-08-29T07:33:12.389Z,21.90
2017-08-29T07:35:39.999Z,20.37
2017-08-29T07:38:07.594Z,22.13
2017-08-29T07:40:35.221Z,22.03
2017-08-29T07:43:02.800Z,21.83
2017-08-29T07:45:30.393Z,20.70
2017-08-29T07:47:58.001Z,21.70
2017-08-29T07:50:25.598Z,21.90
2017-08-29T07:52:53.254Z,22.17
2017-08-29T07:55:20.851Z,22.60
2017-08-29T07:57:48.432Z,22.83
2017-08-29T08:00:16.027Z,20.33
2017-08-29T08:02:43.621Z,21.00
2017-08-29T08:05:11.238Z,21.10
2017-08-29T08:07:38.833Z,21.50
2017-08-29T08:10:06.392Z,19.70
2017-08-29T08:12:33.986Z,21.17
2017-08-29T08:15:01.557Z,21.33
2017-08-29T08:17:29.175Z,21.03
2017-08-29T08:19:56.761Z,20.60
2017-08-29T08:22:24.356Z,22.17
2017-08-29T08:24:51.949Z,22.77
2017-08-29T08:27:19.557Z,21.57
2017-08-29T08:29:47.183Z,21.57
2017-08-29T08:32:14.759Z,21.03
2017-08-29T08:34:42.343Z,21.50
2017-08-29T08:37:09.920Z,22.10
2017-08-29T08:39:37.481Z,21.10
2017-08-29T08:42:05.069Z,23.30
2017-08-29T08:44:32.637Z,23.13
2017-08-29T08:47:01.008Z,24.77
2017-08-29T08:49:29.408Z,22.30
2017-08-29T08:51:56.973Z,19.70
2017-08-29T08:54:25.412Z,24.00
2017-08-29T08:56:53.000Z,20.60
2017-08-29T08:59:20.565Z,25.90
2017-08-29T09:01:48.161Z,27.20
2017-08-29T09:04:15.735Z,24.60
2017-08-29T09:06:43.352Z,27.80
2017-08-29T09:09:10.920Z,28.50
2017-08-29T09:11:38.491Z,27.03
2017-08-29T09:14:06.132Z,24.47
2017-08-29T09:16:34.469Z,28.77
2017-08-29T09:19:02.075Z,25.83
2017-08-29T09:21:30.123Z,23.83
2017-08-29T09:23:57.714Z,24.00
2017-08-29T09:26:26.307Z,21.63
2017-08-29T09:28:53.875Z,21.97
2017-08-29T09:31:21.495Z,23.80
2017-08-29T09:33:49.075Z,20.53
2017-08-29T09:36:16.676Z,22.47
2017-08-29T09:38:44.278Z,21.67
2017-08-29T09:41:11.868Z,27.37
2017-08-29T09:43:39.460Z,22.40
2017-08-29T09:46:07.025Z,23.57
2017-08-29T09:48:34.609Z,26.40
2017-08-29T09:51:02.193Z,30.30
2017-08-29T09:53:29.752Z,25.00
2017-08-29T09:55:57.371Z,23.27
2017-08-29T09:58:24.983Z,20.90
2017-08-29T10:00:52.644Z,22.27
2017-08-29T10:03:20.239Z,22.10
2017-08-29T10:05:47.907Z,23.10
2017-08-29T10:08:15.520Z,25.63
2017-08-29T10:10:43.103Z,22.23
2017-08-29T10:13:10.682Z,19.87
2017-08-29T10:15:38.264Z,25.00
2017-08-29T10:18:05.844Z,18.63
2017-08-29T10:20:33.439Z,24.83
2017-08-29T10:23:01.011Z,23.53
2017-08-29T10:25:28.568Z,23.13
2017-08-29T10:27:56.171Z,22.00
2017-08-29T10:30:23.740Z,20.17
2017-08-29T10:32:51.398Z,19.60
2017-08-29T10:35:19.013Z,18.03
2017-08-29T10:37:46.604Z,19.90
2017-08-29T10:40:14.218Z,19.63
2017-08-29T10:42:41.830Z,23.33
2017-08-29T10:45:09.446Z,22.83
2017-08-29T10:47:37.037Z,21.47
2017-08-29T10:50:04.644Z,18.30
2017-08-29T10:52:32.302Z,17.90
2017-08-29T10:54:59.895Z,18.27
2017-08-29T10:57:27.547Z,18.93
2017-08-29T10:59:55.147Z,16.93
2017-08-29T11:02:22.722Z,16.27
2017-08-29T11:04:50.393Z,18.93
2017-08-29T11:07:17.992Z,16.92
2017-08-29T11:09:45.630Z,18.20
2017-08-29T11:12:13.243Z,16.07
2017-08-29T11:14:40.824Z,14.80
2017-08-29T11:17:08.453Z,11.90
2017-08-29T11:19:36.029Z,14.50
2017-08-29T11:22:03.632Z,13.30
2017-08-29T11:24:31.235Z,15.40
2017-08-29T11:26:58.854Z,11.23
2017-08-29T11:29:26.438Z,12.20
2017-08-29T11:31:54.109Z,12.77
2017-08-29T11:34:21.742Z,11.87
2017-08-29T11:36:50.150Z,10.23
2017-08-29T11:39:18.516Z,11.20
2017-08-29T11:41:46.107Z,10.60
2017-08-29T11:44:13.788Z,10.50
2017-08-29T11:46:41.438Z,10.57
2017-08-29T11:49:09.015Z,10.53
2017-08-29T11:51:36.642Z,10.40
2017-08-29T11:54:04.232Z,10.50
2017-08-29T11:56:31.833Z,10.60
2017-08-29T11:58:59.480Z,10.83
2017-08-29T12:01:27.098Z,11.27
2017-08-29T12:03:54.718Z,9.77
2017-08-29T12:06:22.295Z,10.87
2017-08-29T12:08:49.928Z,9.80
2017-08-29T12:11:17.534Z,11.93
2017-08-29T12:13:45.102Z,9.00
2017-08-29T12:16:12.699Z,9.33
2017-08-29T12:18:40.269Z,8.70
2017-08-29T12:21:07.914Z,10.00
2017-08-29T12:23:35.522Z,8.83
2017-08-29T12:26:03.104Z,8.57
2017-08-29T12:28:30.736Z,10.10
2017-08-29T12:30:58.324Z,10.27
2017-08-29T12:33:25.939Z,8.77
2017-08-29T12:35:53.552Z,9.27
2017-08-29T12:38:21.144Z,8.70
2017-08-29T12:40:48.764Z,8.83
2017-08-29T12:43:16.356Z,8.90
2017-08-29T12:45:43.970Z,8.90
2017-08-29T12:48:11.631Z,8.00
2017-08-29T12:50:39.287Z,8.57
2017-08-29T12:53:06.900Z,8.27
2017-08-29T12:55:34.482Z,7.90
2017-08-29T12:58:02.156Z,9.20
2017-08-29T13:00:30.059Z,9.20
2017-08-29T13:02:57.650Z,9.00
2017-08-29T13:05:25.316Z,8.77
2017-08-29T13:07:52.924Z,9.63
2017-08-29T13:10:20.517Z,9.20
2017-08-29T13:12:48.159Z,9.03
2017-08-29T13:15:15.773Z,9.70
2017-08-29T13:17:43.441Z,10.60
2017-08-29T13:20:11.798Z,10.50
2017-08-29T13:22:39.419Z,10.30
2017-08-29T13:25:07.032Z,10.00
2017-08-29T13:27:34.623Z,9.73
2017-08-29T13:30:02.234Z,10.50
2017-08-29T13:32:29.805Z,10.50
2017-08-29T13:34:57.381Z,11.03
2017-08-29T13:37:24.983Z,10.70
2017-08-29T13:39:52.562Z,11.10
2017-08-29T13:42:20.185Z,10.60
2017-08-29T13:44:47.777Z,10.20
2017-08-29T13:47:15.344Z,9.70
2017-08-29T13:49:42.999Z,9.53
2017-08-29T13:52:10.643Z,12.23
2017-08-29T13:54:38.294Z,10.50
2017-08-29T13:57:05.880Z,9.90
2017-08-29T13:59:33.496Z,10.80
2017-08-29T14:02:01.109Z,10.17
2017-08-29T14:04:28.716Z,10.57
2017-08-29T14:06:56.328Z,9.90
2017-08-29T14:09:23.933Z,9.27
2017-08-29T14:11:51.501Z,10.03
2017-08-29T14:14:19.178Z,9.87
2017-08-29T14:16:46.775Z,9.80
2017-08-29T14:19:14.398Z,10.00
2017-08-29T14:21:41.983Z,10.53
2017-08-29T14:24:09.555Z,11.07
2017-08-29T14:26:37.155Z,10.30
2017-08-29T14:29:04.765Z,10.33
2017-08-29T14:31:32.390Z,10.37
2017-08-29T14:33:59.967Z,9.83
2017-08-29T14:36:27.556Z,9.10
2017-08-29T14:38:55.167Z,10.10
2017-08-29T14:41:22.761Z,9.50
2017-08-29T14:43:50.398Z,8.70
2017-08-29T14:46:23.762Z,9.80
2017-08-29T14:49:04.127Z,10.37
2017-08-29T14:51:31.697Z,9.10
2017-08-29T14:53:59.283Z,10.10
2017-08-29T14:56:26.860Z,9.80
2017-08-29T14:58:54.451Z,10.60
2017-08-29T15:01:22.068Z,9.73
2017-08-29T15:03:49.642Z,9.80
2017-08-29T15:06:17.225Z,9.40
2017-08-29T15:08:44.836Z,9.10
2017-08-29T15:11:12.429Z,10.17
2017-08-29T15:13:40.055Z,9.50
2017-08-29T15:16:07.643Z,9.93
2017-08-29T15:18:35.226Z,10.80
2017-08-29T15:21:02.810Z,9.37
2017-08-29T15:23:30.496Z,10.27
2017-08-29T15:25:58.137Z,9.10
2017-08-29T15:28:25.708Z,8.60
2017-08-29T15:30:53.307Z,9.97
2017-08-29T15:33:21.700Z,9.30
2017-08-29T15:35:49.270Z,10.17
2017-08-29T15:38:16.861Z,8.87
2017-08-29T15:40:44.452Z,9.13
2017-08-29T15:43:12.032Z,8.67
2017-08-29T15:45:39.636Z,7.80
2017-08-29T15:48:07.265Z,8.87
2017-08-29T15:50:35.620Z,8.80
2017-08-29T15:53:03.225Z,7.90
2017-08-29T15:55:30.832Z,9.93
2017-08-29T15:57:58.403Z,9.00
2017-08-29T16:00:25.987Z,9.97
2017-08-29T16:02:53.624Z,9.57
2017-08-29T16:05:21.191Z,9.93
2017-08-29T16:07:48.778Z,9.47
2017-08-29T16:10:16.402Z,10.80
2017-08-29T16:12:43.975Z,8.73
2017-08-29T16:15:11.577Z,11.33
2017-08-29T16:17:39.187Z,9.57
2017-08-29T16:20:06.756Z,9.53
2017-08-29T16:22:34.348Z,14.17
2017-08-29T16:25:01.971Z,12.07
2017-08-29T16:27:29.576Z,11.60
2017-08-29T16:29:57.152Z,10.73
2017-08-29T16:32:24.742Z,9.87
2017-08-29T16:34:52.314Z,10.10
2017-08-29T16:37:19.892Z,11.20
2017-08-29T16:39:47.512Z,8.77
2017-08-29T16:42:15.100Z,10.50
2017-08-29T16:44:42.725Z,9.73
2017-08-29T16:47:11.097Z,10.40
2017-08-29T16:49:38.672Z,8.90
2017-08-29T16:52:06.261Z,10.17
2017-08-29T16:54:33.857Z,10.10
2017-08-29T16:57:01.438Z,11.90
2017-08-29T16:59:29.071Z,10.43
2017-08-29T17:01:56.679Z,12.80
2017-08-29T17:04:24.262Z,12.40
2017-08-29T17:06:51.835Z,10.93
2017-08-29T17:09:19.427Z,10.93
2017-08-29T17:11:47.002Z,9.90
2017-08-29T17:14:14.594Z,11.20
2017-08-29T17:16:42.221Z,10.37
2017-08-29T17:19:09.796Z,10.00
2017-08-29T17:21:37.405Z,16.20
2017-08-29T17:24:05.123Z,9.50
2017-08-29T17:26:32.717Z,11.03
2017-08-29T17:29:00.306Z,9.97
2017-08-29T17:31:27.934Z,10.27
2017-08-29T17:33:55.515Z,10.53
2017-08-29T17:36:23.244Z,10.30
2017-08-29T17:38:50.892Z,11.90
2017-08-29T17:41:18.476Z,10.83
2017-08-29T17:43:46.060Z,10.60
2017-08-29T17:46:13.670Z,11.97
2017-08-29T17:48:41.250Z,10.30
2017-08-29T17:51:08.852Z,11.07
2017-08-29T17:53:36.483Z,13.20
2017-08-29T17:56:04.105Z,10.90
2017-08-29T17:58:31.692Z,11.27
2017-08-29T18:00:59.301Z,10.30
2017-08-29T18:03:26.893Z,11.37
2017-08-29T18:05:55.262Z,11.20
2017-08-29T18:08:22.849Z,9.90
2017-08-29T18:10:50.474Z,10.70
2017-08-29T18:13:18.086Z,11.50
2017-08-29T18:15:45.675Z,11.00
2017-08-29T18:18:13.259Z,11.93
2017-08-29T18:20:40.867Z,10.70
2017-08-29T18:23:08.451Z,10.77
2017-08-29T18:25:36.125Z,11.80
2017-08-29T18:28:04.461Z,13.47
2017-08-29T18:30:32.036Z,12.70
2017-08-29T18:32:59.653Z,12.17
2017-08-29T18:35:27.255Z,14.37
2017-08-29T18:37:54.871Z,12.90
2017-08-29T18:40:22.468Z,14.00
2017-08-29T18:42:50.062Z,15.00
2017-08-29T18:45:17.646Z,14.20
2017-08-29T18:47:45.218Z,14.73
2017-08-29T18:50:12.818Z,14.10
2017-08-29T18:52:40.388Z,14.20
2017-08-29T18:55:07.965Z,14.57
2017-08-29T18:57:35.598Z,14.53
2017-08-29T19:00:03.187Z,15.30
2017-08-29T19:02:30.771Z,15.80
2017-08-29T19:04:58.399Z,14.73
2017-08-29T19:07:25.980Z,14.77
2017-08-29T19:09:53.546Z,15.00
2017-08-29T19:12:21.170Z,16.67
2017-08-29T19:14:48.744Z,15.23
2017-08-29T19:17:16.330Z,16.17
2017-08-29T19:19:43.967Z,15.87
2017-08-29T19:22:11.568Z,16.60
2017-08-29T19:24:39.143Z,19.50
2017-08-29T19:27:06.802Z,19.27
2017-08-29T19:29:34.356Z,18.80
2017-08-29T19:32:01.946Z,18.53
2017-08-29T19:34:29.559Z,17.67
2017-08-29T19:36:57.130Z,17.93
2017-08-29T19:39:24.710Z,17.97
2017-08-29T19:41:52.330Z,20.00
2017-08-29T19:44:19.906Z,20.20
2017-08-29T19:46:47.508Z,20.90
2017-08-29T19:49:15.140Z,19.60
2017-08-29T19:51:42.755Z,20.10
2017-08-29T19:54:10.348Z,20.83
2017-08-29T19:56:37.987Z,21.07
2017-08-29T19:59:05.572Z,19.53
2017-08-29T20:01:33.137Z,20.50
2017-08-29T20:04:00.769Z,19.50
2017-08-29T20:06:28.369Z,19.15
2017-08-29T20:08:55.933Z,18.70
2017-08-29T20:11:23.563Z,20.27
2017-08-29T20:13:51.181Z,19.30
2017-08-29T20:16:18.773Z,19.10
2017-08-29T20:18:46.392Z,20.23
2017-08-29T20:21:14.107Z,19.70
2017-08-29T20:23:41.722Z,19.23
2017-08-29T20:26:09.342Z,23.23
2017-08-29T20:28:36.917Z,26.87
2017-08-29T20:31:04.530Z,23.83
2017-08-29T20:33:32.084Z,24.83
2017-08-29T20:35:59.687Z,24.57
2017-08-29T20:38:27.277Z,25.20
2017-08-29T20:40:54.842Z,25.03
2017-08-29T20:43:22.420Z,24.33
2017-08-29T20:45:49.990Z,25.57
2017-08-29T20:48:17.596Z,22.73
2017-08-29T20:50:45.207Z,25.30
2017-08-29T20:53:13.576Z,26.27
2017-08-29T20:55:41.155Z,24.47
2017-08-29T20:58:08.779Z,27.30
2017-08-29T21:00:36.396Z,24.67
2017-08-29T21:03:03.986Z,25.43
2017-08-29T21:05:31.596Z,34.50
2017-08-29T21:07:59.181Z,43.50
2017-08-29T21:10:26.755Z,36.53
2017-08-29T21:12:54.364Z,36.40
2017-08-29T21:15:21.950Z,32.00
2017-08-29T21:17:49.527Z,22.90
2017-08-29T21:20:17.115Z,32.37
2017-08-29T21:22:44.713Z,22.43
2017-08-29T21:25:12.331Z,20.63
2017-08-29T21:27:39.892Z,24.43
2017-08-29T21:30:07.449Z,28.80
2017-08-29T21:32:35.069Z,27.17
2017-08-29T21:35:02.677Z,25.23
2017-08-29T21:37:30.303Z,23.97
2017-08-29T21:39:57.885Z,24.00
2017-08-29T21:42:25.478Z,20.63
2017-08-29T21:44:53.064Z,21.73
2017-08-29T21:47:20.657Z,22.43
2017-08-29T21:49:48.408Z,22.27
2017-08-29T21:52:16.006Z,18.70
2017-08-29T21:54:43.585Z,15.70
2017-08-29T21:57:11.207Z,19.00
2017-08-29T21:59:38.777Z,18.83
2017-08-29T22:02:06.365Z,24.10
2017-08-29T22:04:33.925Z,19.30
2017-08-29T22:07:01.506Z,18.70
2017-08-29T22:09:29.856Z,17.60
2017-08-29T22:11:57.438Z,18.80
2017-08-29T22:14:25.058Z,16.80
2017-08-29T22:16:52.660Z,16.53
2017-08-29T22:19:20.235Z,15.67
2017-08-29T22:21:48.700Z,13.93
2017-08-29T22:24:16.261Z,13.10
2017-08-29T22:26:43.882Z,13.80
2017-08-29T22:29:11.469Z,11.70
2017-08-29T22:31:39.055Z,11.67
2017-08-29T22:34:06.693Z,13.17
2017-08-29T22:36:34.268Z,12.57
2017-08-29T22:39:01.871Z,12.60
2017-08-29T22:41:29.441Z,13.80
2017-08-29T22:43:57.074Z,12.05
2017-08-29T22:46:24.694Z,10.70
2017-08-29T22:48:52.267Z,10.23
2017-08-29T22:51:19.874Z,10.33
2017-08-29T22:53:47.441Z,9.50
2017-08-29T22:56:15.031Z,8.87
2017-08-29T22:58:42.631Z,9.73
2017-08-29T23:01:10.232Z,9.50
2017-08-29T23:03:37.844Z,8.80
2017-08-29T23:06:05.400Z,9.80
2017-08-29T23:08:32.984Z,9.50
2017-08-29T23:11:00.594Z,8.90
2017-08-29T23:13:28.185Z,9.53
2017-08-29T23:15:55.815Z,9.43
2017-08-29T23:18:23.382Z,8.23
2017-08-29T23:20:50.958Z,10.03
2017-08-29T23:23:18.547Z,9.00
2017-08-29T23:25:46.135Z,8.77
2017-08-29T23:28:13.742Z,8.60
2017-08-29T23:30:41.323Z,8.20
2017-08-29T23:33:08.904Z,8.63
2017-08-29T23:35:36.481Z,8.00
2017-08-29T23:38:04.058Z,7.47
2017-08-29T23:40:31.684Z,8.73
2017-08-29T23:42:59.266Z,8.03
2017-08-29T23:45:26.845Z,8.30
2017-08-29T23:47:54.434Z,8.27
2017-08-29T23:50:22.008Z,7.07
2017-08-29T23:52:49.603Z,8.83
2017-08-29T23:55:17.191Z,8.40
2017-08-29T23:57:44.768Z,7.03
